createdAt,value
2022-09-06T00:03:14.499Z,98547.66
2022-09-06T00:08:19.066Z,98548.38
2022-09-06T00:13:21.735Z,98536.56
2022-09-06T00:18:27.704Z,98529.47
2022-09-06T00:23:31.847Z,98523.97
2022-09-06T00:28:34.578Z,98507.13
2022-09-06T00:33:37.449Z,98505.28
2022-09-06T00:38:42.039Z,98498.34
2022-09-06T00:43:45.545Z,98501.91
2022-09-06T00:48:52.706Z,98507.13
2022-09-06T00:53:57.339Z,98512.34
2022-09-06T00:59:01.371Z,98526.50
2022-09-06T01:04:05.094Z,98533.38
2022-09-06T01:09:26.157Z,98610.16
2022-09-06T01:14:41.610Z,98564.88
2022-09-06T01:20:20.577Z,98570.75
2022-09-06T01:25:37.559Z,98575.63
2022-09-06T01:30:48.276Z,98584.03
2022-09-06T01:35:58.039Z,98579.00
2022-09-06T01:41:00.780Z,98593.63
2022-09-06T01:46:14.175Z,98593.78
2022-09-06T01:51:28.080Z,98599.00
2022-09-06T01:56:39.260Z,98605.63
2022-09-06T02:01:57.270Z,98623.09
2022-09-06T02:07:03.069Z,98629.56
2022-09-06T02:12:08.919Z,98624.41
2022-09-06T02:17:16.735Z,98620.47
2022-09-06T02:22:23.587Z,98621.13
2022-09-06T02:27:26.435Z,98623.47
2022-09-06T02:32:32.904Z,98621.56
2022-09-06T02:37:35.789Z,98609.66
2022-09-06T02:42:39.181Z,98590.00
2022-09-06T02:47:43.261Z,98565.88
2022-09-06T02:52:46.529Z,98550.69
2022-09-06T02:57:49.217Z,98527.28
2022-09-06T03:02:53.297Z,98523.63
2022-09-06T03:07:56.683Z,98520.44
2022-09-06T03:12:59.507Z,98508.47
2022-09-06T03:18:03.544Z,98477.16
2022-09-06T03:23:06.226Z,98470.16
2022-09-06T03:28:08.919Z,98469.59
2022-09-06T03:33:13.093Z,98467.25
2022-09-06T03:38:15.770Z,98465.09
2022-09-06T03:43:20.211Z,98466.94
2022-09-06T03:48:26.779Z,98477.94
2022-09-06T03:53:30.418Z,98490.41
2022-09-06T03:58:34.223Z,98472.19
2022-09-06T04:03:39.446Z,98471.44
2022-09-06T04:08:42.119Z,98480.13
2022-09-06T04:13:44.831Z,98470.56
2022-09-06T04:18:48.894Z,98463.91
2022-09-06T04:23:51.553Z,98467.53
2022-09-06T04:28:54.579Z,98467.41
2022-09-06T04:33:58.769Z,98471.44
2022-09-06T04:39:01.504Z,98470.66
2022-09-06T04:44:04.241Z,98465.66
2022-09-06T04:49:08.282Z,98467.03
2022-09-06T04:54:10.933Z,98479.03
2022-09-06T04:59:13.721Z,98475.50
2022-09-06T05:04:17.821Z,98469.59
2022-09-06T05:09:20.955Z,98483.06
2022-09-06T05:14:23.795Z,98488.41
2022-09-06T05:19:27.871Z,98489.06
2022-09-06T05:24:30.632Z,98501.69
2022-09-06T05:29:33.295Z,98494.78
2022-09-06T05:34:37.316Z,98509.81
2022-09-06T05:39:40.094Z,98507.78
2022-09-06T05:44:42.803Z,98507.28
2022-09-06T05:49:47.249Z,98514.50
2022-09-06T05:54:49.913Z,98512.84
2022-09-06T05:59:53.495Z,98511.97
2022-09-06T06:04:58.768Z,98512.78
2022-09-06T06:10:01.475Z,98528.75
2022-09-06T06:15:05.690Z,98533.50
2022-09-06T06:20:10.813Z,98526.44
2022-09-06T06:25:13.582Z,98536.81
2022-09-06T06:30:18.450Z,98538.97
2022-09-06T06:35:22.715Z,98541.53
2022-09-06T06:40:25.448Z,98545.69
2022-09-06T06:45:28.194Z,98547.63
2022-09-06T06:50:32.249Z,98549.75
2022-09-06T06:55:34.949Z,98537.47
2022-09-06T07:00:37.752Z,98541.56
2022-09-06T07:11:07.003Z,98549.50
2022-09-06T07:16:12.294Z,98540.31
2022-09-06T07:26:41.839Z,98539.66
2022-09-06T07:37:08.720Z,98546.72
2022-09-06T07:42:11.433Z,98554.88
2022-09-06T07:58:02.785Z,98550.00
2022-09-06T08:03:05.458Z,98546.00
2022-09-06T08:13:32.172Z,98545.66
2022-09-06T08:18:34.883Z,98552.22
2022-09-06T08:23:39.395Z,98545.00
2022-09-06T08:28:42.178Z,98546.09
2022-09-06T08:33:45.566Z,98545.66
2022-09-06T08:38:50.662Z,98536.25
2022-09-06T08:49:19.099Z,98548.22
2022-09-06T08:54:29.849Z,98535.91
2022-09-06T08:59:39.000Z,98540.63
2022-09-06T09:04:45.412Z,98534.97
2022-09-06T09:09:50.667Z,98518.34
2022-09-06T09:14:58.125Z,98513.72
2022-09-06T09:20:00.823Z,98514.44
2022-09-06T09:25:08.618Z,98502.31
2022-09-06T09:35:42.150Z,98512.31
2022-09-06T09:40:53.403Z,98501.56
2022-09-06T09:46:18.138Z,98503.16
2022-09-06T09:51:27.017Z,98481.41
2022-09-06T09:56:37.847Z,98487.00
2022-09-06T10:01:40.517Z,98476.22
2022-09-06T10:12:08.335Z,98472.94
2022-09-06T10:17:20.606Z,98473.88
2022-09-06T10:22:29.332Z,98472.31
2022-09-06T10:27:33.950Z,98472.72
2022-09-06T10:32:42.939Z,98463.16
2022-09-06T10:37:49.872Z,98462.53
2022-09-06T10:42:58.039Z,98458.41
2022-09-06T10:48:05.239Z,98454.78
2022-09-06T10:53:13.493Z,98453.88
2022-09-06T10:58:25.886Z,98458.75
2022-09-06T11:09:00.526Z,98445.13
2022-09-06T11:14:08.571Z,98430.66
2022-09-06T11:19:17.753Z,98433.47
2022-09-06T11:24:37.308Z,98430.69
2022-09-06T11:29:45.411Z,98420.25
2022-09-06T11:34:55.778Z,98419.13
2022-09-06T11:40:31.334Z,98415.38
2022-09-06T11:45:45.503Z,98416.06
2022-09-06T11:51:06.525Z,98415.50
2022-09-06T11:56:25.258Z,98411.88
2022-09-06T12:01:37.787Z,98410.91
2022-09-06T12:06:43.699Z,98412.97
2022-09-06T12:11:48.584Z,98416.22
2022-09-06T12:17:21.168Z,98399.03
2022-09-06T12:22:53.437Z,98392.03
2022-09-06T12:27:58.588Z,98397.50
2022-09-06T12:33:06.243Z,98393.34
2022-09-06T12:38:15.762Z,98378.97
2022-09-06T12:43:20.020Z,98383.97
2022-09-06T12:48:32.362Z,98375.06
2022-09-06T12:53:35.971Z,98363.44
2022-09-06T12:58:39.545Z,98379.28
2022-09-06T13:03:48.994Z,98364.56
2022-09-06T13:08:55.509Z,98352.88
2022-09-06T13:13:58.809Z,98365.75
2022-09-06T13:19:14.779Z,98358.06
2022-09-06T13:24:23.728Z,98373.38
2022-09-06T13:29:31.343Z,98361.78
2022-09-06T13:34:56.728Z,98352.41
2022-09-06T13:39:59.764Z,98339.03
2022-09-06T13:45:22.415Z,98333.16
2022-09-06T13:50:27.972Z,98329.78
2022-09-06T13:55:33.146Z,98331.75
2022-09-06T14:00:35.994Z,98333.00
2022-09-06T14:05:40.112Z,98355.59
2022-09-06T14:10:42.895Z,98332.72
2022-09-06T14:15:46.547Z,98323.59
2022-09-06T14:20:56.086Z,98313.31
2022-09-06T14:25:59.503Z,98316.06
2022-09-06T14:31:11.320Z,98321.28
2022-09-06T14:36:17.611Z,98314.06
2022-09-06T14:41:21.415Z,98309.13
2022-09-06T14:46:26.317Z,98295.88
2022-09-06T14:51:31.568Z,98285.25
2022-09-06T14:56:34.647Z,98272.06
2022-09-06T15:01:38.988Z,98271.94
2022-09-06T15:06:50.420Z,98274.16
2022-09-06T15:11:54.550Z,98272.03
2022-09-06T15:16:59.813Z,98258.97
2022-09-06T15:22:05.123Z,98264.00
2022-09-06T15:27:08.050Z,98254.94
2022-09-06T15:32:10.797Z,98264.97
2022-09-06T15:37:14.995Z,98269.56
2022-09-06T15:42:17.872Z,98276.75
2022-09-06T15:47:20.633Z,98273.97
2022-09-06T15:52:24.739Z,98283.66
2022-09-06T15:57:28.795Z,98303.13
2022-09-06T16:02:31.559Z,98314.53
2022-09-06T16:07:38.164Z,98322.06
2022-09-06T16:12:41.146Z,98308.06
2022-09-06T16:17:43.922Z,98315.25
2022-09-06T16:22:50.011Z,98309.03
2022-09-06T16:27:52.753Z,98326.47
2022-09-06T16:32:55.561Z,98333.44
2022-09-06T16:38:02.352Z,98328.50
2022-09-06T16:43:05.339Z,98324.25
2022-09-06T16:48:08.391Z,98302.72
2022-09-06T16:53:12.518Z,98296.75
2022-09-06T16:58:15.318Z,98296.81
2022-09-06T17:03:18.249Z,98285.81
2022-09-06T17:08:22.348Z,98284.13
2022-09-06T17:13:25.123Z,98290.81
2022-09-06T17:18:28.238Z,98273.63
2022-09-06T17:23:33.267Z,98280.50
2022-09-06T17:28:37.148Z,98284.13
2022-09-06T17:33:40.400Z,98293.69
2022-09-06T17:38:49.857Z,98284.19
2022-09-06T17:43:58.569Z,98276.56
2022-09-06T17:49:01.479Z,98302.53
2022-09-06T17:54:07.830Z,98309.94
2022-09-06T17:59:13.922Z,98299.09
2022-09-06T18:04:17.593Z,98308.09
2022-09-06T18:09:21.759Z,98312.84
2022-09-06T18:14:24.603Z,98309.44
2022-09-06T18:19:27.913Z,98310.28
2022-09-06T18:24:32.163Z,98311.78
2022-09-06T18:29:34.997Z,98301.56
2022-09-06T18:34:37.821Z,98302.00
2022-09-06T18:39:42.839Z,98300.34
2022-09-06T18:44:45.808Z,98286.97
2022-09-06T18:49:48.537Z,98300.38
2022-09-06T18:54:52.643Z,98313.75
2022-09-06T18:59:55.398Z,98306.22
2022-09-06T19:04:59.187Z,98310.59
2022-09-06T19:10:04.425Z,98290.28
2022-09-06T19:15:07.713Z,98277.75
2022-09-06T19:20:12.010Z,98273.09
2022-09-06T19:25:16.190Z,98263.69
2022-09-06T19:30:19.817Z,98255.31
2022-09-06T19:35:22.567Z,98239.22
2022-09-06T19:40:26.733Z,98241.69
2022-09-06T19:45:29.462Z,98237.50
2022-09-06T19:50:34.635Z,98234.97
2022-09-06T19:55:38.895Z,98231.81
2022-09-06T20:00:42.579Z,98234.91
2022-09-06T20:05:45.456Z,98234.19
2022-09-06T20:10:57.060Z,98228.97
2022-09-06T20:15:59.830Z,98225.81
2022-09-06T20:21:03.202Z,98216.16
2022-09-06T20:26:08.905Z,98220.31
2022-09-06T20:31:15.423Z,98223.84
2022-09-06T20:36:19.087Z,98222.16
2022-09-06T20:41:25.141Z,98222.16
2022-09-06T20:46:30.123Z,98216.34
2022-09-06T20:51:34.661Z,98223.38
2022-09-06T20:56:42.819Z,98224.66
2022-09-06T21:01:47.898Z,98226.75
2022-09-06T21:06:50.975Z,98217.78
2022-09-06T21:11:55.149Z,98204.44
2022-09-06T21:16:58.364Z,98215.66
2022-09-06T21:22:01.059Z,98207.41
2022-09-06T21:27:06.727Z,98209.25
2022-09-06T21:32:09.471Z,98202.41
2022-09-06T21:37:12.227Z,98209.84
2022-09-06T21:42:17.166Z,98238.31
2022-09-06T21:47:19.915Z,98227.53
2022-09-06T21:52:23.826Z,98243.59
2022-09-06T21:57:27.910Z,98226.06
2022-09-06T22:02:30.719Z,98211.25
2022-09-06T22:07:35.373Z,98205.94
2022-09-06T22:12:39.602Z,98199.00
2022-09-06T22:17:42.416Z,98183.72
2022-09-06T22:22:46.153Z,98187.59
2022-09-06T22:27:50.339Z,98174.72
2022-09-06T22:32:53.365Z,98175.06
2022-09-06T22:37:56.223Z,98173.16
2022-09-06T22:43:00.378Z,98169.53
2022-09-06T22:48:03.665Z,98164.06
2022-09-06T22:53:06.494Z,98148.91
2022-09-06T22:58:10.606Z,98138.22
2022-09-06T23:03:13.430Z,98135.25
2022-09-06T23:08:16.693Z,98158.69
2022-09-06T23:13:20.933Z,98171.56
2022-09-06T23:18:23.737Z,98186.75
2022-09-06T23:23:26.458Z,98187.56
2022-09-06T23:28:30.685Z,98192.53
2022-09-06T23:33:35.027Z,98216.59
2022-09-06T23:38:39.308Z,98208.00
2022-09-06T23:43:44.486Z,98215.09
2022-09-06T23:48:47.247Z,98202.78
2022-09-06T23:53:50.050Z,98204.78
2022-09-06T23:58:54.108Z,98196.84
